Time;durP1;ratioP1;P1;durP2;ratioP2;P2;SDS_P1;SDS_P2;PMS_P1;PMS_P2;Temp;Humidity;BMP_temperature;BMP_pressure;BME280_temperature;BME280_humidity;BME280_pressure;Samples;Min_cycle;Max_cycle;Signal;HPM_P1;HPM_P2
2023/10/11 00:02:20;;;;;;;15.48;6.72;;;;;;;;;;4930528;29;20043;-89
2023/10/11 00:05:06;;;;;;;18.88;6.18;;;;;;;;;;4926460;29;20024;-89
2023/10/11 00:07:57;;;;;;;12.95;5.70;;;;;;;;;;4933614;29;20289;-90
2023/10/11 00:10:47;;;;;;;17.35;6.57;;;;;;;;;;4928714;29;20172;-89
2023/10/11 00:13:33;;;;;;;12.80;5.57;;;;;;;;;;4940901;28;20609;-90
2023/10/11 00:16:21;;;;;;;15.55;6.22;;;;;;;;;;4937344;28;20028;-90
2023/10/11 00:19:09;;;;;;;11.07;6.15;;;;;;;;;;4929334;29;20036;-89
2023/10/11 00:21:55;;;;;;;10.37;5.17;;;;;;;;;;4931939;29;20036;-89
2023/10/11 00:24:40;;;;;;;11.40;5.40;;;;;;;;;;4927098;29;20035;-89
2023/10/11 00:27:28;;;;;;;17.42;7.10;;;;;;;;;;4930614;29;20437;-89
2023/10/11 00:30:16;;;;;;;14.18;5.82;;;;;;;;;;4925970;29;20044;-89
2023/10/11 00:33:04;;;;;;;13.52;5.70;;;;;;;;;;4917149;29;20094;-87
2023/10/11 00:35:50;;;;;;;11.68;5.97;;;;;;;;;;4917530;29;20039;-87
2023/10/11 00:38:50;;;;;;;13.80;5.72;;;;;;;;;;4930672;28;20032;-87
2023/10/11 00:41:39;;;;;;;14.30;5.22;;;;;;;;;;4930272;29;20042;-89
2023/10/11 00:44:25;;;;;;;;;;;;;;;;;;4926491;29;20039;-90
2023/10/11 00:47:12;;;;;;;13.13;5.50;;;;;;;;;;4928540;29;19970;-89
2023/10/11 00:49:58;;;;;;;13.18;6.15;;;;;;;;;;4914268;29;20031;-89
2023/10/11 00:52:45;;;;;;;14.93;5.60;;;;;;;;;;4934036;29;20027;-89
2023/10/11 00:55:36;;;;;;;12.73;4.85;;;;;;;;;;4924209;29;20040;-88
2023/10/11 00:58:22;;;;;;;12.57;5.30;;;;;;;;;;4921042;29;20313;-88
2023/10/11 01:01:08;;;;;;;15.65;5.82;;;;;;;;;;4928838;29;20038;-87
2023/10/11 01:03:54;;;;;;;12.88;5.50;;;;;;;;;;4930999;29;20032;-87
2023/10/11 01:06:39;;;;;;;10.35;4.80;;;;;;;;;;4927271;29;20028;-88
2023/10/11 01:09:28;;;;;;;11.63;6.47;;;;;;;;;;4918806;29;20031;-88
2023/10/11 01:12:16;;;;;;;13.00;5.45;;;;;;;;;;4936419;28;20134;-88
2023/10/11 01:15:02;;;;;;;11.82;6.00;;;;;;;;;;4927837;29;20167;-89
2023/10/11 01:17:47;;;;;;;12.38;5.18;;;;;;;;;;4932506;29;20075;-89
2023/10/11 01:20:42;;;;;;;11.48;5.65;;;;;;;;;;4913030;29;20024;-89
2023/10/11 01:23:27;;;;;;;18.70;5.60;;;;;;;;;;4929875;28;20434;-90
2023/10/11 01:26:13;;;;;;;12.43;6.10;;;;;;;;;;4931020;29;20058;-89
2023/10/11 01:28:58;;;;;;;9.50;5.55;;;;;;;;;;4930348;29;20173;-88
2023/10/11 01:31:43;;;;;;;10.77;6.15;;;;;;;;;;4933018;28;20027;-89
2023/10/11 01:34:30;;;;;;;12.85;5.18;;;;;;;;;;4935438;28;20020;-89
2023/10/11 01:37:17;;;;;;;13.52;5.65;;;;;;;;;;4922159;29;20099;-88
2023/10/11 01:40:07;;;;;;;12.85;5.68;;;;;;;;;;4925629;29;20034;-88
2023/10/11 01:42:53;;;;;;;10.48;5.53;;;;;;;;;;4932556;29;20036;-89
2023/10/11 01:45:39;;;;;;;10.70;5.28;;;;;;;;;;4925850;29;20036;-88
2023/10/11 01:48:24;;;;;;;13.27;6.18;;;;;;;;;;4932375;29;20035;-88
2023/10/11 01:51:09;;;;;;;13.45;6.28;;;;;;;;;;4928564;29;20055;-88
2023/10/11 01:56:30;;;;;;;10.95;4.78;;;;;;;;;;5090935;23;20074;-89
2023/10/11 01:59:16;;;;;;;12.50;5.55;;;;;;;;;;4941622;28;20114;-88
2023/10/11 02:02:02;;;;;;;11.48;5.70;;;;;;;;;;5030362;23;20054;-87
2023/10/11 02:04:50;;;;;;;15.32;5.78;;;;;;;;;;4988956;28;20035;-87
2023/10/11 02:07:35;;;;;;;15.20;6.13;;;;;;;;;;4977353;28;20030;-88
2023/10/11 02:10:27;;;;;;;13.82;5.38;;;;;;;;;;4964450;28;20019;-88
2023/10/11 02:13:12;;;;;;;12.23;4.85;;;;;;;;;;4977927;28;20061;-89
2023/10/11 02:16:00;;;;;;;13.75;6.38;;;;;;;;;;4974396;28;20584;-88
2023/10/11 02:18:52;;;;;;;14.00;6.25;;;;;;;;;;4976063;28;20044;-90
2023/10/11 02:21:46;;;;;;;11.75;5.00;;;;;;;;;;4976494;28;20030;-90
2023/10/11 02:24:35;;;;;;;15.05;6.00;;;;;;;;;;4977265;28;20034;-90
2023/10/11 02:27:22;;;;;;;13.10;6.28;;;;;;;;;;4970620;28;20029;-90
2023/10/11 02:30:13;;;;;;;16.90;6.35;;;;;;;;;;4975418;28;20531;-89
2023/10/11 02:33:07;;;;;;;14.75;6.22;;;;;;;;;;4971171;28;20044;-89
2023/10/11 02:35:56;;;;;;;11.27;4.82;;;;;;;;;;4973375;28;20042;-89
2023/10/11 02:38:47;;;;;;;9.60;5.05;;;;;;;;;;4972782;28;20481;-89
2023/10/11 02:41:36;;;;;;;12.70;6.17;;;;;;;;;;4970007;28;20080;-89
2023/10/11 02:44:28;;;;;;;13.77;5.55;;;;;;;;;;4972467;28;20045;-89
2023/10/11 02:47:27;;;;;;;12.48;5.43;;;;;;;;;;4961185;28;20034;-89
2023/10/11 02:50:22;;;;;;;14.15;6.45;;;;;;;;;;4968124;28;20077;-89
2023/10/11 02:53:21;;;;;;;14.90;5.13;;;;;;;;;;4972480;28;20113;-88
2023/10/11 02:56:07;;;;;;;12.97;5.03;;;;;;;;;;4974439;28;20114;-88
2023/10/11 02:58:52;;;;;;;12.02;5.28;;;;;;;;;;4974384;28;20069;-89
2023/10/11 03:01:40;;;;;;;10.05;4.97;;;;;;;;;;4959441;28;20093;-88
2023/10/11 03:04:29;;;;;;;17.52;6.28;;;;;;;;;;4956046;28;20026;-88
2023/10/11 03:07:21;;;;;;;14.68;6.30;;;;;;;;;;4952720;28;20585;-88
2023/10/11 03:10:13;;;;;;;10.45;4.70;;;;;;;;;;4949973;28;20034;-87
2023/10/11 03:13:02;;;;;;;12.88;6.00;;;;;;;;;;4954790;28;20030;-89
2023/10/11 03:16:13;;;;;;;11.75;5.13;;;;;;;;;;4952695;28;20023;-87
2023/10/11 03:19:05;;;;;;;16.40;6.13;;;;;;;;;;4954103;28;20027;-88
2023/10/11 03:21:56;;;;;;;11.57;5.07;;;;;;;;;;4951999;28;20019;-89
2023/10/11 03:24:41;;;;;;;14.18;5.88;;;;;;;;;;4949589;28;20046;-88
2023/10/11 03:27:27;;;;;;;18.35;5.50;;;;;;;;;;4942894;28;20031;-88
2023/10/11 03:30:42;;;;;;;13.20;6.45;;;;;;;;;;4948590;28;20132;-88
2023/10/11 03:33:36;;;;;;;14.88;5.55;;;;;;;;;;4964837;28;20110;-87
2023/10/11 03:36:35;;;;;;;16.30;6.05;;;;;;;;;;4936455;28;20061;-88
2023/10/11 03:45:49;;;;;;;16.58;7.03;;;;;;;;;;4872296;29;20044;-87
2023/10/11 03:48:44;;;;;;;13.98;5.78;;;;;;;;;;4893644;28;20617;-88
2023/10/11 03:51:36;;;;;;;18.10;6.38;;;;;;;;;;4951087;28;20027;-90
2023/10/11 03:54:22;;;;;;;17.08;6.65;;;;;;;;;;4952508;28;20508;-87
2023/10/11 03:57:07;;;;;;;11.30;5.90;;;;;;;;;;4953026;28;20114;-87
2023/10/11 03:59:53;;;;;;;14.48;5.78;;;;;;;;;;4955170;28;20023;-85
2023/10/11 04:02:39;;;;;;;12.80;5.63;;;;;;;;;;4952076;28;20043;-87
2023/10/11 04:05:29;;;;;;;9.75;5.60;;;;;;;;;;4950135;28;20022;-87
2023/10/11 04:08:21;;;;;;;16.88;5.68;;;;;;;;;;4947274;28;20551;-88
2023/10/11 04:11:17;;;;;;;16.10;6.10;;;;;;;;;;4952984;28;20048;-87
2023/10/11 04:14:02;;;;;;;16.13;5.88;;;;;;;;;;4951239;28;20106;-88
2023/10/11 04:16:48;;;;;;;14.10;6.13;;;;;;;;;;4950226;28;20023;-88
2023/10/11 04:19:39;;;;;;;13.23;5.40;;;;;;;;;;4949080;28;20031;-87
2023/10/11 04:22:26;;;;;;;17.25;6.10;;;;;;;;;;4952944;28;20046;-88
2023/10/11 04:25:14;;;;;;;11.20;5.05;;;;;;;;;;4952616;28;20106;-85
2023/10/11 04:28:02;;;;;;;11.65;5.18;;;;;;;;;;4957167;28;20022;-88
2023/10/11 04:30:51;;;;;;;13.90;6.00;;;;;;;;;;4950104;28;20027;-89
2023/10/11 04:33:44;;;;;;;14.30;6.65;;;;;;;;;;4954254;28;20058;-86
2023/10/11 04:36:29;;;;;;;13.10;5.15;;;;;;;;;;4949752;28;20125;-87
2023/10/11 04:39:16;;;;;;;11.60;6.25;;;;;;;;;;4955664;28;20031;-91
2023/10/11 04:42:02;;;;;;;12.55;5.38;;;;;;;;;;4952085;28;20382;-87
2023/10/11 04:44:54;;;;;;;13.52;6.13;;;;;;;;;;4943968;28;20480;-86
2023/10/11 04:47:51;;;;;;;12.20;5.90;;;;;;;;;;4951239;28;20489;-86
2023/10/11 04:50:43;;;;;;;15.70;6.00;;;;;;;;;;4946779;28;20027;-85
2023/10/11 04:53:33;;;;;;;15.02;7.10;;;;;;;;;;4957688;28;20046;-87
2023/10/11 04:59:36;;;;;;;17.08;5.30;;;;;;;;;;4950345;28;20027;-88
2023/10/11 05:02:32;;;;;;;11.70;6.15;;;;;;;;;;4973331;28;20101;-83
2023/10/11 05:05:19;;;;;;;15.73;5.85;;;;;;;;;;4966037;28;20069;-86
2023/10/11 05:10:43;;;;;;;13.75;6.15;;;;;;;;;;5033879;23;20494;-89
2023/10/11 05:21:14;;;;;;;11.02;5.38;;;;;;;;;;4818242;29;20046;-92
2023/10/11 05:55:53;;;;;;;15.20;5.35;;;;;;;;;;4748714;30;20051;-92
2023/10/11 06:02:22;;;;;;;14.07;6.13;;;;;;;;;;4732290;30;20118;-87
2023/10/11 07:17:08;;;;;;;;;;;;;;;;;;;;;
2023/10/11 07:37:00;;;;;;;13.23;5.15;;;;;;;;;;4899350;29;20087;-89
2023/10/11 07:43:48;;;;;;;15.45;5.40;;;;;;;;;;4888638;29;20782;-89
2023/10/11 08:01:15;;;;;;;11.48;4.80;;;;;;;;;;4766185;30;20047;-88
2023/10/11 08:04:12;;;;;;;;;;;;;;;;;;4757671;30;20039;-90
2023/10/11 08:07:00;;;;;;;15.38;5.53;;;;;;;;;;4806456;29;19912;-88
2023/10/11 08:20:57;;;;;;;;;;;;;;;;;;;;;
2023/10/11 08:27:28;;;;;;;14.00;4.53;;;;;;;;;;4895853;28;20134;-88
2023/10/11 08:33:42;;;;;;;16.52;4.90;;;;;;;;;;4908607;29;20107;-88
2023/10/11 08:40:29;;;;;;;11.77;4.78;;;;;;;;;;4911706;29;20600;-87
2023/10/11 08:43:39;;;;;;;12.10;4.78;;;;;;;;;;4876531;29;20124;-88
2023/10/11 08:46:40;;;;;;;11.63;4.60;;;;;;;;;;4912462;29;20027;-88
2023/10/11 08:49:27;;;;;;;10.70;4.32;;;;;;;;;;4911115;29;20035;-87
2023/10/11 08:52:17;;;;;;;13.80;5.57;;;;;;;;;;4948376;28;20030;-88
2023/10/11 08:55:06;;;;;;;15.50;4.97;;;;;;;;;;4949007;28;20138;-88
2023/10/11 08:58:29;;;;;;;16.52;5.88;;;;;;;;;;4936055;28;20039;-90
2023/10/11 09:01:59;;;;;;;18.50;4.80;;;;;;;;;;4912012;29;20104;-89
2023/10/11 09:04:55;;;;;;;10.25;4.75;;;;;;;;;;4940051;28;20037;-90
2023/10/11 09:07:44;;;;;;;16.10;4.93;;;;;;;;;;4956797;28;20027;-90
2023/10/11 09:10:51;;;;;;;17.90;5.55;;;;;;;;;;4930622;28;20039;-91
2023/10/11 09:13:39;;;;;;;16.05;4.53;;;;;;;;;;4946025;28;20081;-89
2023/10/11 09:22:46;;;;;;;19.98;4.70;;;;;;;;;;4943938;28;20001;-83
2023/10/11 09:25:41;;;;;;;13.63;5.80;;;;;;;;;;4930214;28;20055;-81
2023/10/11 09:28:46;;;;;;;13.50;4.15;;;;;;;;;;4944991;28;20693;-79
2023/10/11 09:31:32;;;;;;;10.38;4.47;;;;;;;;;;4930357;28;20478;-79
2023/10/11 09:34:18;;;;;;;15.75;5.20;;;;;;;;;;4936510;28;20074;-80
2023/10/11 09:37:03;;;;;;;15.45;4.78;;;;;;;;;;4931882;29;20082;-79
2023/10/11 09:39:53;;;;;;;10.02;4.50;;;;;;;;;;4934385;28;20610;-79
2023/10/11 09:42:43;;;;;;;15.27;4.80;;;;;;;;;;4934818;29;20050;-79
2023/10/11 09:45:29;;;;;;;15.88;5.90;;;;;;;;;;4944981;28;20457;-79
2023/10/11 09:48:19;;;;;;;11.80;4.40;;;;;;;;;;4930064;28;20039;-79
2023/10/11 09:51:08;;;;;;;17.23;4.70;;;;;;;;;;4927458;29;20019;-79
2023/10/11 09:53:53;;;;;;;13.05;3.70;;;;;;;;;;4940950;28;20034;-79
2023/10/11 09:57:03;;;;;;;17.02;5.05;;;;;;;;;;4931532;29;20027;-79
2023/10/11 10:00:03;;;;;;;9.02;3.97;;;;;;;;;;4935403;28;20028;-79
2023/10/11 10:02:50;;;;;;;13.57;4.93;;;;;;;;;;4925000;29;20034;-79
2023/10/11 10:05:54;;;;;;;8.57;4.20;;;;;;;;;;4927238;28;20032;-80
2023/10/11 10:08:40;;;;;;;14.80;3.58;;;;;;;;;;4926417;29;20385;-79
2023/10/11 10:11:25;;;;;;;17.75;5.68;;;;;;;;;;4931791;29;20015;-78
2023/10/11 10:14:25;;;;;;;13.70;4.32;;;;;;;;;;4941490;28;20047;-78
2023/10/11 10:17:10;;;;;;;14.57;5.05;;;;;;;;;;4928730;29;20031;-80
2023/10/11 10:20:00;;;;;;;13.85;4.60;;;;;;;;;;4924777;28;20028;-79
2023/10/11 10:23:05;;;;;;;11.70;4.55;;;;;;;;;;4928020;28;20031;-78
2023/10/11 10:26:11;;;;;;;15.68;4.57;;;;;;;;;;4937740;28;20787;-78
2023/10/11 10:29:12;;;;;;;11.18;4.80;;;;;;;;;;4928330;29;20039;-78
2023/10/11 10:32:04;;;;;;;20.73;5.10;;;;;;;;;;4929481;28;20035;-78
2023/10/11 10:35:11;;;;;;;13.60;4.78;;;;;;;;;;4922981;28;20027;-81
2023/10/11 10:37:56;;;;;;;16.45;5.40;;;;;;;;;;4934731;28;20093;-77
2023/10/11 10:40:48;;;;;;;14.93;5.20;;;;;;;;;;4926657;29;20034;-76
2023/10/11 10:43:33;;;;;;;16.40;4.15;;;;;;;;;;4933940;28;20032;-75
2023/10/11 10:46:18;;;;;;;16.38;4.50;;;;;;;;;;4928784;29;20498;-76
2023/10/11 10:49:04;;;;;;;15.05;4.57;;;;;;;;;;4932849;29;20575;-75
2023/10/11 10:51:49;;;;;;;12.20;4.22;;;;;;;;;;4930250;28;20034;-76
2023/10/11 10:54:37;;;;;;;14.77;4.80;;;;;;;;;;4926927;28;20035;-76
2023/10/11 10:57:24;;;;;;;11.65;4.25;;;;;;;;;;4933589;29;20086;-75
2023/10/11 11:00:22;;;;;;;12.38;4.60;;;;;;;;;;4931417;28;20030;-82
2023/10/11 11:03:17;;;;;;;9.77;4.65;;;;;;;;;;4930069;29;20134;-81
2023/10/11 11:06:02;;;;;;;15.27;5.05;;;;;;;;;;4919076;28;20086;-81
2023/10/11 11:08:48;;;;;;;12.80;4.80;;;;;;;;;;4927920;29;20106;-80
2023/10/11 11:11:35;;;;;;;15.85;4.32;;;;;;;;;;4932128;28;20035;-80
2023/10/11 11:14:23;;;;;;;14.70;4.15;;;;;;;;;;4928888;28;20128;-81
2023/10/11 11:17:09;;;;;;;7.43;3.47;;;;;;;;;;4946361;28;20061;-81
2023/10/11 11:20:02;;;;;;;14.15;3.97;;;;;;;;;;4941729;28;20024;-81
2023/10/11 11:22:52;;;;;;;15.07;4.32;;;;;;;;;;4944729;28;20042;-80
2023/10/11 11:25:37;;;;;;;11.25;4.47;;;;;;;;;;4943640;28;20036;-80
2023/10/11 11:28:25;;;;;;;14.27;4.38;;;;;;;;;;4948256;28;20422;-80
2023/10/11 11:31:14;;;;;;;11.07;4.55;;;;;;;;;;4945022;28;20047;-81
2023/10/11 11:34:12;;;;;;;9.35;3.85;;;;;;;;;;4961402;28;20036;-81
2023/10/11 11:36:58;;;;;;;11.63;5.25;;;;;;;;;;4945971;28;20386;-80
2023/10/11 11:43:31;;;;;;;11.85;3.92;;;;;;;;;;4909514;29;20039;-82
2023/10/11 11:46:16;;;;;;;14.35;5.43;;;;;;;;;;4943719;28;20494;-82
2023/10/11 11:49:09;;;;;;;16.77;4.55;;;;;;;;;;4930735;29;20034;-83
2023/10/11 11:51:55;;;;;;;10.15;5.55;;;;;;;;;;4930121;28;20034;-82
2023/10/11 11:54:43;;;;;;;13.85;5.35;;;;;;;;;;4945396;28;20046;-80
2023/10/11 11:57:29;;;;;;;11.52;4.35;;;;;;;;;;4944302;28;20122;-82
2023/10/11 12:03:09;;;;;;;13.52;4.50;;;;;;;;;;4945011;28;20089;-81
2023/10/11 12:05:54;;;;;;;9.68;4.07;;;;;;;;;;4942872;28;20046;-82
2023/10/11 12:08:39;;;;;;;9.63;4.05;;;;;;;;;;4937486;28;20035;-81
2023/10/11 12:11:28;;;;;;;10.30;3.83;;;;;;;;;;4942341;28;20032;-82
2023/10/11 12:14:13;;;;;;;12.82;4.78;;;;;;;;;;4940836;28;20062;-82
2023/10/11 12:16:59;;;;;;;11.52;4.07;;;;;;;;;;4931342;29;20046;-82
2023/10/11 12:19:45;;;;;;;13.50;4.78;;;;;;;;;;4947602;28;20067;-84
2023/10/11 12:22:30;;;;;;;12.80;3.95;;;;;;;;;;4935066;28;20461;-83
2023/10/11 12:25:24;;;;;;;10.70;3.95;;;;;;;;;;4937324;28;20023;-83
2023/10/11 12:28:11;;;;;;;11.43;3.95;;;;;;;;;;4927938;28;20107;-81
2023/10/11 12:31:00;;;;;;;12.35;4.28;;;;;;;;;;4929491;29;20051;-82
2023/10/11 12:33:46;;;;;;;10.20;4.60;;;;;;;;;;4927979;28;20046;-81
2023/10/11 12:36:32;;;;;;;14.82;4.47;;;;;;;;;;4931464;29;20046;-83
2023/10/11 12:39:20;;;;;;;10.73;3.85;;;;;;;;;;4932908;29;20065;-83
2023/10/11 12:42:05;;;;;;;10.90;4.13;;;;;;;;;;4927013;28;20023;-87
2023/10/11 12:44:53;;;;;;;7.47;2.95;;;;;;;;;;4930620;29;20086;-86
2023/10/11 12:48:02;;;;;;;7.85;3.95;;;;;;;;;;4935695;28;20050;-86
2023/10/11 12:50:51;;;;;;;8.00;3.10;;;;;;;;;;4933439;28;20039;-87
2023/10/11 12:53:36;;;;;;;9.45;4.05;;;;;;;;;;4929531;28;20039;-85
2023/10/11 12:56:22;;;;;;;10.02;3.85;;;;;;;;;;4929655;28;21576;-85
2023/10/11 12:59:12;;;;;;;12.27;3.88;;;;;;;;;;4931993;29;20023;-85
2023/10/11 13:01:58;;;;;;;24.40;4.75;;;;;;;;;;4933201;28;20039;-87
2023/10/11 13:04:47;;;;;;;12.35;4.05;;;;;;;;;;4951057;28;20035;-86
2023/10/11 13:07:32;;;;;;;16.23;4.93;;;;;;;;;;4926636;28;20047;-86
2023/10/11 13:10:17;;;;;;;10.25;3.72;;;;;;;;;;4923596;29;20035;-87
2023/10/11 13:13:08;;;;;;;11.80;4.15;;;;;;;;;;4931878;29;20110;-84
2023/10/11 13:16:00;;;;;;;13.25;4.43;;;;;;;;;;4953848;28;20502;-85
2023/10/11 13:18:48;;;;;;;9.88;4.05;;;;;;;;;;4944117;28;20070;-84
2023/10/11 13:21:35;;;;;;;10.05;4.47;;;;;;;;;;4948431;28;20035;-86
2023/10/11 13:24:23;;;;;;;;;;;;;;;;;;4940308;28;20035;-83
2023/10/11 13:27:09;;;;;;;10.63;3.60;;;;;;;;;;4957578;28;19911;-82
2023/10/11 13:29:54;;;;;;;8.55;3.08;;;;;;;;;;4947942;28;20114;-85
2023/10/11 13:32:45;;;;;;;8.43;3.88;;;;;;;;;;4948885;28;20035;-86
2023/10/11 13:35:31;;;;;;;6.95;3.28;;;;;;;;;;4946300;28;20122;-84
2023/10/11 13:38:20;;;;;;;6.40;3.20;;;;;;;;;;4936079;28;20020;-85
2023/10/11 13:41:10;;;;;;;13.38;4.13;;;;;;;;;;4943944;28;20086;-85
2023/10/11 13:43:56;;;;;;;5.85;2.80;;;;;;;;;;4952599;28;20065;-85
2023/10/11 13:46:42;;;;;;;10.52;3.85;;;;;;;;;;4946773;28;20742;-82
2023/10/11 13:49:27;;;;;;;7.90;3.45;;;;;;;;;;4945623;28;20040;-83
2023/10/11 13:52:14;;;;;;;9.63;3.22;;;;;;;;;;4954766;28;20047;-82
2023/10/11 13:55:01;;;;;;;8.63;3.20;;;;;;;;;;4967179;28;20027;-83
2023/10/11 13:57:52;;;;;;;8.77;3.58;;;;;;;;;;4982813;28;20020;-80
2023/10/11 14:06:29;;;;;;;10.57;4.03;;;;;;;;;;4961682;28;20114;-86
2023/10/11 14:09:20;;;;;;;9.90;3.72;;;;;;;;;;4957661;28;20023;-87
2023/10/11 14:12:11;;;;;;;14.05;3.65;;;;;;;;;;4951620;28;20146;-88
2023/10/11 14:14:57;;;;;;;9.80;4.15;;;;;;;;;;4961006;28;20038;-84
2023/10/11 14:17:43;;;;;;;10.88;3.97;;;;;;;;;;4967077;28;20038;-85
2023/10/11 14:20:32;;;;;;;10.20;2.95;;;;;;;;;;4959668;28;20091;-83
2023/10/11 14:23:17;;;;;;;8.17;3.83;;;;;;;;;;4956644;28;20348;-86
2023/10/11 14:26:05;;;;;;;10.20;3.53;;;;;;;;;;4954122;28;20034;-87
2023/10/11 14:28:50;;;;;;;8.90;3.28;;;;;;;;;;4946372;28;20032;-86
2023/10/11 14:31:35;;;;;;;12.23;3.38;;;;;;;;;;4946922;28;20027;-87
2023/10/11 14:34:21;;;;;;;10.23;3.28;;;;;;;;;;4961587;28;20045;-84
2023/10/11 14:37:08;;;;;;;10.82;3.80;;;;;;;;;;4952819;28;20066;-85
2023/10/11 14:39:54;;;;;;;8.05;3.22;;;;;;;;;;4952674;28;20490;-84
2023/10/11 14:42:48;;;;;;;13.90;4.55;;;;;;;;;;4952727;28;20029;-88
2023/10/11 14:45:35;;;;;;;10.25;3.70;;;;;;;;;;4951138;28;20041;-83
2023/10/11 14:48:20;;;;;;;7.07;3.53;;;;;;;;;;4956447;28;20028;-85
2023/10/11 14:51:06;;;;;;;7.20;3.45;;;;;;;;;;4959973;28;20050;-84
2023/10/11 14:53:55;;;;;;;;;;;;;;;;;;4966291;28;20030;-84
2023/10/11 14:56:49;;;;;;;10.25;3.25;;;;;;;;;;4955017;28;19914;-86
2023/10/11 14:59:35;;;;;;;11.35;3.45;;;;;;;;;;4954601;28;20055;-84
2023/10/11 15:02:20;;;;;;;11.95;3.65;;;;;;;;;;4943382;28;20022;-84
2023/10/11 15:05:06;;;;;;;6.43;3.03;;;;;;;;;;4944116;28;20019;-85
2023/10/11 15:07:54;;;;;;;8.57;3.70;;;;;;;;;;4950542;28;20034;-85
2023/10/11 15:10:43;;;;;;;9.70;3.50;;;;;;;;;;4957618;28;20066;-82
2023/10/11 15:13:28;;;;;;;13.05;4.15;;;;;;;;;;4953623;28;20035;-82
2023/10/11 15:16:14;;;;;;;13.60;3.80;;;;;;;;;;4931506;29;20044;-82
2023/10/11 15:19:01;;;;;;;7.18;3.22;;;;;;;;;;4935666;29;20135;-84
2023/10/11 15:21:46;;;;;;;7.97;3.92;;;;;;;;;;4927869;28;20066;-84
2023/10/11 15:24:32;;;;;;;17.73;4.30;;;;;;;;;;4930823;29;20059;-83
2023/10/11 15:27:17;;;;;;;7.10;3.28;;;;;;;;;;4931173;29;20376;-80
2023/10/11 15:30:06;;;;;;;10.93;3.65;;;;;;;;;;4937062;28;20043;-86
2023/10/11 15:32:51;;;;;;;;;;;;;;;;;;4938007;29;20542;-82
2023/10/11 15:35:39;;;;;;;8.98;3.80;;;;;;;;;;4926361;28;19914;-84
2023/10/11 15:38:25;;;;;;;7.80;3.60;;;;;;;;;;4935997;29;20061;-83
2023/10/11 15:41:10;;;;;;;8.23;3.53;;;;;;;;;;4929236;29;20019;-83
2023/10/11 15:43:55;;;;;;;9.93;4.38;;;;;;;;;;4936284;28;20097;-83
2023/10/11 15:46:41;;;;;;;10.18;4.38;;;;;;;;;;4933510;28;20035;-82
2023/10/11 15:49:26;;;;;;;17.17;4.13;;;;;;;;;;4932030;29;20024;-79
2023/10/11 15:52:13;;;;;;;14.63;5.55;;;;;;;;;;4931581;28;20035;-87
2023/10/11 15:54:58;;;;;;;12.35;4.80;;;;;;;;;;4927096;28;20031;-81
2023/10/11 15:57:46;;;;;;;15.65;4.75;;;;;;;;;;4934609;28;20490;-79
2023/10/11 16:00:31;;;;;;;14.85;6.03;;;;;;;;;;4930074;29;20035;-80
2023/10/11 16:03:23;;;;;;;15.15;5.57;;;;;;;;;;4932441;28;20035;-82
2023/10/11 16:06:08;;;;;;;9.52;4.40;;;;;;;;;;4935813;29;20503;-82
2023/10/11 16:08:54;;;;;;;19.25;5.82;;;;;;;;;;4934730;29;20408;-80
2023/10/11 16:11:39;;;;;;;14.75;4.60;;;;;;;;;;4928111;28;20167;-80
2023/10/11 16:14:24;;;;;;;12.52;4.80;;;;;;;;;;4937897;28;20043;-80
2023/10/11 16:17:09;;;;;;;14.15;4.85;;;;;;;;;;4931876;28;20038;-80
2023/10/11 16:19:57;;;;;;;10.38;4.47;;;;;;;;;;4930755;28;20020;-80
2023/10/11 16:22:42;;;;;;;10.88;4.15;;;;;;;;;;4937574;29;20031;-80
2023/10/11 16:25:27;;;;;;;24.70;6.45;;;;;;;;;;4935708;29;20370;-80
2023/10/11 16:28:12;;;;;;;11.15;4.47;;;;;;;;;;4937190;28;20027;-81
2023/10/11 16:30:58;;;;;;;11.18;4.55;;;;;;;;;;4934087;29;20019;-79
2023/10/11 16:33:43;;;;;;;9.35;4.13;;;;;;;;;;4937755;28;20057;-80
2023/10/11 16:36:29;;;;;;;11.75;4.13;;;;;;;;;;4932357;29;20027;-80
2023/10/11 16:39:16;;;;;;;15.32;4.25;;;;;;;;;;4949763;28;20090;-79
2023/10/11 16:42:02;;;;;;;12.10;4.32;;;;;;;;;;4938051;28;20047;-83
2023/10/11 16:44:47;;;;;;;7.55;3.75;;;;;;;;;;4940295;28;20032;-82
2023/10/11 16:47:36;;;;;;;9.98;3.70;;;;;;;;;;4948195;28;20050;-80
2023/10/11 16:50:21;;;;;;;10.68;4.63;;;;;;;;;;4924914;29;20027;-80
2023/10/11 16:53:08;;;;;;;11.32;4.90;;;;;;;;;;4935258;29;20027;-81
2023/10/11 16:55:53;;;;;;;10.18;5.32;;;;;;;;;;4933590;28;20043;-81
2023/10/11 16:58:42;;;;;;;17.02;5.50;;;;;;;;;;4931346;29;20019;-81
2023/10/11 17:01:28;;;;;;;10.38;5.00;;;;;;;;;;4942050;28;20146;-79
2023/10/11 17:04:15;;;;;;;8.27;3.83;;;;;;;;;;4937629;28;20117;-80
2023/10/11 17:07:00;;;;;;;14.25;6.00;;;;;;;;;;4933349;29;20043;-80
2023/10/11 17:09:48;;;;;;;11.63;4.18;;;;;;;;;;4932934;28;20078;-80
2023/10/11 17:12:34;;;;;;;11.60;4.10;;;;;;;;;;4935333;28;20062;-80
2023/10/11 17:15:24;;;;;;;10.45;4.20;;;;;;;;;;4934765;29;20095;-80
2023/10/11 17:18:09;;;;;;;8.48;3.75;;;;;;;;;;4937888;28;20089;-81
2023/10/11 17:20:58;;;;;;;11.27;4.47;;;;;;;;;;4931076;29;20031;-80
2023/10/11 17:23:44;;;;;;;8.15;4.35;;;;;;;;;;4940392;28;20050;-81
2023/10/11 17:26:32;;;;;;;9.98;4.30;;;;;;;;;;4930505;29;20030;-81
2023/10/11 17:29:18;;;;;;;10.25;4.53;;;;;;;;;;4936801;29;20389;-81
2023/10/11 17:32:04;;;;;;;9.52;4.30;;;;;;;;;;4934797;28;20027;-81
2023/10/11 17:34:49;;;;;;;9.15;4.07;;;;;;;;;;4935220;29;20043;-80
2023/10/11 17:37:38;;;;;;;10.98;3.92;;;;;;;;;;4934486;28;20120;-78
2023/10/11 17:40:29;;;;;;;10.52;4.43;;;;;;;;;;4932557;29;20061;-79
2023/10/11 17:43:14;;;;;;;13.75;3.80;;;;;;;;;;4924273;29;20031;-79
2023/10/11 17:45:59;;;;;;;12.25;5.43;;;;;;;;;;4921298;28;20028;-79
2023/10/11 17:48:45;;;;;;;14.10;4.97;;;;;;;;;;4938040;29;20126;-78
2023/10/11 17:51:30;;;;;;;14.80;5.93;;;;;;;;;;4934649;28;20433;-80
2023/10/11 17:54:15;;;;;;;13.63;5.18;;;;;;;;;;4934647;28;20039;-81
2023/10/11 17:57:01;;;;;;;12.45;5.70;;;;;;;;;;4938123;29;20073;-81
2023/10/11 17:59:46;;;;;;;12.95;5.18;;;;;;;;;;4935206;28;20039;-81
2023/10/11 18:02:31;;;;;;;11.18;4.50;;;;;;;;;;4934690;29;20110;-82
2023/10/11 18:05:16;;;;;;;13.23;5.82;;;;;;;;;;4939322;29;20035;-80
2023/10/11 18:08:02;;;;;;;14.20;5.93;;;;;;;;;;4936051;28;20115;-81
2023/10/11 18:10:48;;;;;;;9.27;4.85;;;;;;;;;;4933520;29;20051;-82
2023/10/11 18:13:33;;;;;;;9.93;4.50;;;;;;;;;;4932354;28;20401;-82
2023/10/11 18:16:18;;;;;;;11.02;4.47;;;;;;;;;;4937457;29;20187;-81
2023/10/11 18:19:10;;;;;;;8.07;4.18;;;;;;;;;;4932251;28;20023;-81
2023/10/11 18:21:57;;;;;;;12.45;5.53;;;;;;;;;;4934867;29;20023;-80
2023/10/11 18:24:43;;;;;;;10.77;3.90;;;;;;;;;;4936279;28;20034;-80
2023/10/11 18:27:28;;;;;;;9.20;4.53;;;;;;;;;;4931996;29;20031;-80
2023/10/11 18:30:19;;;;;;;10.98;4.82;;;;;;;;;;4926036;29;20031;-81
2023/10/11 18:33:06;;;;;;;13.20;5.72;;;;;;;;;;4934982;28;20040;-79
2023/10/11 18:35:53;;;;;;;17.38;5.75;;;;;;;;;;4933336;28;20031;-81
2023/10/11 18:38:38;;;;;;;13.77;5.03;;;;;;;;;;4945206;28;20034;-79
2023/10/11 18:41:24;;;;;;;13.57;5.07;;;;;;;;;;4928701;29;20027;-79
2023/10/11 18:44:09;;;;;;;12.23;4.63;;;;;;;;;;4941859;28;20025;-79
2023/10/11 18:46:55;;;;;;;14.02;4.85;;;;;;;;;;4932211;29;20040;-79
2023/10/11 18:49:40;;;;;;;13.98;5.30;;;;;;;;;;4932724;28;20484;-78
2023/10/11 18:52:26;;;;;;;8.88;4.50;;;;;;;;;;4920293;29;20509;-79
2023/10/11 18:55:13;;;;;;;10.82;4.22;;;;;;;;;;4935626;28;20039;-79
2023/10/11 18:57:58;;;;;;;15.93;4.70;;;;;;;;;;4933762;28;20042;-79
2023/10/11 19:00:45;;;;;;;13.65;4.68;;;;;;;;;;4918349;29;20103;-79
2023/10/11 19:03:31;;;;;;;11.85;5.30;;;;;;;;;;4926469;28;20065;-79
2023/10/11 19:06:17;;;;;;;12.18;5.30;;;;;;;;;;4948435;29;20153;-80
2023/10/11 19:09:06;;;;;;;16.42;5.45;;;;;;;;;;4936057;28;20033;-80
2023/10/11 19:11:53;;;;;;;12.23;4.15;;;;;;;;;;4927463;29;20038;-80
2023/10/11 19:14:38;;;;;;;12.82;5.15;;;;;;;;;;4942083;29;20054;-81
2023/10/11 19:17:24;;;;;;;13.18;4.63;;;;;;;;;;4934489;29;20311;-81
2023/10/11 19:20:13;;;;;;;15.90;5.78;;;;;;;;;;4931490;29;20023;-81
2023/10/11 19:23:00;;;;;;;8.27;4.53;;;;;;;;;;4932435;29;20114;-81
2023/10/11 19:25:53;;;;;;;18.50;6.25;;;;;;;;;;4928827;29;20118;-77
2023/10/11 19:28:38;;;;;;;13.75;6.38;;;;;;;;;;4925302;28;20368;-79
2023/10/11 19:31:26;;;;;;;15.25;6.15;;;;;;;;;;4930744;29;20023;-78
2023/10/11 19:34:12;;;;;;;12.18;5.53;;;;;;;;;;4926232;29;20087;-79
2023/10/11 19:36:58;;;;;;;12.07;5.80;;;;;;;;;;4935801;28;20443;-79
2023/10/11 19:39:46;;;;;;;10.85;4.85;;;;;;;;;;4937231;29;20042;-80
2023/10/11 19:42:34;;;;;;;9.00;4.47;;;;;;;;;;4944887;29;20035;-80
2023/10/11 19:45:25;;;;;;;10.93;4.97;;;;;;;;;;4941384;28;20035;-78
2023/10/11 19:48:11;;;;;;;14.43;4.95;;;;;;;;;;4934795;29;20015;-79
2023/10/11 19:50:56;;;;;;;11.85;4.70;;;;;;;;;;4929266;29;20294;-78
2023/10/11 19:53:41;;;;;;;16.50;5.75;;;;;;;;;;4934292;28;20023;-77
2023/10/11 19:56:26;;;;;;;15.35;4.93;;;;;;;;;;4934783;29;20062;-77
2023/10/11 19:59:11;;;;;;;12.73;4.65;;;;;;;;;;4948058;28;20054;-78
2023/10/11 20:01:57;;;;;;;11.68;5.03;;;;;;;;;;4930496;28;20027;-78
2023/10/11 20:04:46;;;;;;;11.85;5.07;;;;;;;;;;4929255;29;20035;-80
2023/10/11 20:07:32;;;;;;;10.63;4.68;;;;;;;;;;4915397;29;20039;-77
2023/10/11 20:10:18;;;;;;;15.15;4.90;;;;;;;;;;4941998;29;20101;-79